createdAt,value
2023-03-08T00:00:24.197Z,1.35
2023-03-08T00:03:14.871Z,1.05
2023-03-08T00:06:07.326Z,1.10
2023-03-08T00:08:56.782Z,1.00
2023-03-08T00:11:44.817Z,0.90
2023-03-08T00:14:32.838Z,1.40
2023-03-08T00:17:20.941Z,1.45
2023-03-08T00:20:11.974Z,1.00
2023-03-08T00:23:01.281Z,1.10
2023-03-08T00:25:52.931Z,1.17
2023-03-08T00:28:41.765Z,1.15
2023-03-08T00:31:29.857Z,1.20
2023-03-08T00:34:18.796Z,1.00
2023-03-08T00:37:06.882Z,1.10
2023-03-08T00:39:56.265Z,1.40
2023-03-08T00:42:44.239Z,1.10
2023-03-08T00:45:32.222Z,1.05
2023-03-08T00:48:20.498Z,1.08
2023-03-08T00:51:08.992Z,0.90
2023-03-08T00:53:57.041Z,1.30
2023-03-08T00:56:46.344Z,1.10
2023-03-08T00:59:34.336Z,1.13
2023-03-08T01:02:22.326Z,1.00
2023-03-08T01:05:11.353Z,1.30
2023-03-08T01:07:59.373Z,1.13
2023-03-08T01:10:51.569Z,0.98
2023-03-08T01:13:40.904Z,1.10
2023-03-08T01:16:31.116Z,1.13
2023-03-08T01:19:19.124Z,1.33
2023-03-08T01:22:07.138Z,1.60
2023-03-08T01:24:55.102Z,1.42
2023-03-08T01:27:43.070Z,1.40
2023-03-08T01:30:32.417Z,1.50
2023-03-08T01:33:20.986Z,1.40
2023-03-08T01:36:11.865Z,1.35
2023-03-08T01:39:02.118Z,1.67
2023-03-08T01:41:50.252Z,1.40
2023-03-08T01:44:55.254Z,1.58
2023-03-08T01:47:44.554Z,1.98
2023-03-08T01:50:32.677Z,1.58
2023-03-08T01:53:20.949Z,1.77
2023-03-08T01:56:12.524Z,1.80
2023-03-08T01:59:02.356Z,1.25
2023-03-08T02:01:50.722Z,1.63
2023-03-08T02:04:41.127Z,1.50
2023-03-08T02:07:29.116Z,1.80
2023-03-08T02:10:18.954Z,1.85
2023-03-08T02:13:08.269Z,1.42
2023-03-08T02:15:58.104Z,1.50
2023-03-08T02:18:58.155Z,1.38
2023-03-08T02:21:47.474Z,1.55
2023-03-08T02:24:36.894Z,1.58
2023-03-08T02:27:27.016Z,1.60
2023-03-08T02:30:17.798Z,2.03
2023-03-08T02:33:11.628Z,1.52
2023-03-08T02:36:03.559Z,1.95
2023-03-08T02:38:51.704Z,1.48
2023-03-08T02:41:41.098Z,2.05
2023-03-08T02:44:29.198Z,1.67
2023-03-08T02:47:17.457Z,1.67
2023-03-08T02:50:06.846Z,1.40
2023-03-08T02:52:54.975Z,2.10
2023-03-08T02:55:43.044Z,1.50
2023-03-08T02:58:32.416Z,1.95
2023-03-08T03:01:20.517Z,1.35
2023-03-08T03:04:08.620Z,1.70
2023-03-08T03:06:56.657Z,1.95
2023-03-08T03:09:44.708Z,1.58
2023-03-08T03:12:32.749Z,1.67
2023-03-08T03:15:22.338Z,1.90
2023-03-08T03:18:10.427Z,1.40
2023-03-08T03:21:04.330Z,1.70
2023-03-08T03:23:52.585Z,1.77
2023-03-08T03:26:40.909Z,1.20
2023-03-08T03:29:28.963Z,1.70
2023-03-08T03:32:18.548Z,1.83
2023-03-08T03:35:07.424Z,1.25
2023-03-08T03:37:55.478Z,1.65
2023-03-08T03:40:43.538Z,1.77
2023-03-08T03:43:32.142Z,1.80
2023-03-08T03:46:21.684Z,1.95
2023-03-08T03:49:11.076Z,1.73
2023-03-08T03:51:59.319Z,1.65
2023-03-08T03:54:47.386Z,1.98
2023-03-08T03:57:35.429Z,1.65
2023-03-08T04:00:23.563Z,1.42
2023-03-08T04:03:11.725Z,1.58
2023-03-08T04:06:08.264Z,1.35
2023-03-08T04:08:58.449Z,1.50
2023-03-08T04:11:46.868Z,1.35
2023-03-08T04:14:34.957Z,1.63
2023-03-08T04:17:22.993Z,1.30
2023-03-08T04:20:14.298Z,1.52
2023-03-08T04:23:03.752Z,1.30
2023-03-08T04:25:51.822Z,1.60
2023-03-08T04:28:39.876Z,1.30
2023-03-08T04:31:30.086Z,1.50
2023-03-08T04:34:18.146Z,1.38
2023-03-08T04:37:06.249Z,1.50
2023-03-08T04:39:55.609Z,1.40
2023-03-08T04:42:43.668Z,1.60
2023-03-08T04:45:32.497Z,1.30
2023-03-08T04:48:20.564Z,1.67
2023-03-08T04:51:09.834Z,1.65
2023-03-08T04:53:57.960Z,2.05
2023-03-08T04:56:47.345Z,1.67
2023-03-08T04:59:35.567Z,1.70
2023-03-08T05:02:24.788Z,1.77
2023-03-08T05:05:13.007Z,2.20
2023-03-08T05:08:04.111Z,2.20
2023-03-08T05:11:00.749Z,1.50
2023-03-08T05:13:50.579Z,1.70
2023-03-08T05:16:38.657Z,1.65
2023-03-08T05:19:26.728Z,1.73
2023-03-08T05:22:14.798Z,1.60
2023-03-08T05:25:02.833Z,1.33
2023-03-08T05:27:50.851Z,1.75
2023-03-08T05:30:40.172Z,1.52
2023-03-08T05:33:28.207Z,1.75
2023-03-08T05:36:16.726Z,1.35
2023-03-08T05:39:06.808Z,1.70
2023-03-08T05:41:54.904Z,1.52
2023-03-08T05:44:42.978Z,2.45
2023-03-08T05:47:32.326Z,1.80
2023-03-08T05:50:20.490Z,1.63
2023-03-08T05:53:08.526Z,1.88
2023-03-08T05:55:56.592Z,1.65
2023-03-08T05:58:47.516Z,1.67
2023-03-08T06:01:36.159Z,2.13
2023-03-08T06:04:25.573Z,1.80
2023-03-08T06:07:13.712Z,1.65
2023-03-08T06:10:01.838Z,2.20
2023-03-08T06:12:50.020Z,2.53
2023-03-08T06:15:38.042Z,2.42
2023-03-08T06:18:26.870Z,2.17
2023-03-08T06:21:18.271Z,2.00
2023-03-08T06:24:06.634Z,1.90
2023-03-08T06:26:55.642Z,1.95
2023-03-08T06:29:43.691Z,1.67
2023-03-08T06:32:31.813Z,1.80
2023-03-08T06:35:19.992Z,1.90
2023-03-08T06:38:09.438Z,1.90
2023-03-08T06:40:57.633Z,2.20
2023-03-08T06:43:45.729Z,1.63
2023-03-08T06:46:33.813Z,1.70
2023-03-08T06:49:22.189Z,1.60
2023-03-08T06:52:10.250Z,2.08
2023-03-08T06:54:59.609Z,1.90
2023-03-08T06:57:47.934Z,1.83
2023-03-08T07:00:36.293Z,2.05
2023-03-08T07:03:24.347Z,1.80
2023-03-08T07:06:12.777Z,2.47
2023-03-08T07:09:00.820Z,1.90
2023-03-08T07:11:50.293Z,1.83
2023-03-08T07:14:38.593Z,1.70
2023-03-08T07:17:27.116Z,1.70
2023-03-08T07:20:17.436Z,2.42
2023-03-08T07:23:05.571Z,1.88
2023-03-08T07:25:53.826Z,1.50
2023-03-08T07:28:43.213Z,1.80
2023-03-08T07:31:32.512Z,1.80
2023-03-08T07:34:20.550Z,1.77
2023-03-08T07:37:13.354Z,2.20
2023-03-08T07:40:01.437Z,1.90
2023-03-08T07:42:49.708Z,2.05
2023-03-08T07:45:40.432Z,1.55
2023-03-08T07:48:28.698Z,2.00
2023-03-08T07:51:16.858Z,1.92
2023-03-08T07:54:05.218Z,1.52
2023-03-08T07:56:53.713Z,1.88
2023-03-08T07:59:41.928Z,1.92
2023-03-08T08:02:32.329Z,1.80
2023-03-08T08:05:21.951Z,1.90
2023-03-08T08:08:10.300Z,1.63
2023-03-08T08:10:58.350Z,1.23
2023-03-08T08:13:46.963Z,1.77
2023-03-08T08:16:35.490Z,1.63
2023-03-08T08:19:25.294Z,1.70
2023-03-08T08:22:13.348Z,2.05
2023-03-08T08:25:01.383Z,1.63
2023-03-08T08:27:50.516Z,1.70
2023-03-08T08:30:38.640Z,1.67
2023-03-08T08:33:26.712Z,1.50
2023-03-08T08:36:17.791Z,1.38
2023-03-08T08:39:05.951Z,1.70
2023-03-08T08:41:53.984Z,1.25
2023-03-08T08:44:42.021Z,1.30
2023-03-08T08:47:30.194Z,1.42
2023-03-08T08:50:18.664Z,1.70
2023-03-08T08:53:08.263Z,1.58
2023-03-08T08:55:56.549Z,1.88
2023-03-08T08:58:44.913Z,1.40
2023-03-08T09:01:35.672Z,1.10
2023-03-08T09:04:23.831Z,1.42
2023-03-08T09:07:11.966Z,1.58
2023-03-08T09:10:01.525Z,1.33
2023-03-08T09:12:49.617Z,1.35
2023-03-08T09:15:37.758Z,1.52
2023-03-08T09:18:25.897Z,1.40
2023-03-08T09:21:14.488Z,1.20
2023-03-08T09:24:05.607Z,1.40
2023-03-08T09:26:55.171Z,1.45
2023-03-08T09:29:43.315Z,1.42
2023-03-08T09:32:34.528Z,2.05
2023-03-08T09:35:22.758Z,1.27
2023-03-08T09:38:10.925Z,1.02
2023-03-08T09:41:12.627Z,0.90
2023-03-08T09:44:15.169Z,1.30
2023-03-08T09:47:11.384Z,1.20
2023-03-08T09:50:10.851Z,1.10
2023-03-08T09:53:05.501Z,1.38
2023-03-08T09:55:57.348Z,0.93
2023-03-08T09:58:49.968Z,1.20
2023-03-08T10:01:44.568Z,0.90
2023-03-08T10:04:47.565Z,1.27
2023-03-08T10:07:45.510Z,1.02
2023-03-08T10:10:42.548Z,1.20
2023-03-08T10:13:33.769Z,1.00
2023-03-08T10:16:24.645Z,1.17
2023-03-08T10:19:18.760Z,0.90
2023-03-08T10:22:14.209Z,1.10
2023-03-08T10:25:05.684Z,1.10
2023-03-08T10:27:56.118Z,0.90
2023-03-08T10:30:47.389Z,1.15
2023-03-08T10:33:36.974Z,1.33
2023-03-08T10:36:26.762Z,1.00
2023-03-08T10:39:16.142Z,1.05
2023-03-08T10:42:14.660Z,1.10
2023-03-08T10:45:05.766Z,0.90
2023-03-08T10:47:59.449Z,1.02
2023-03-08T10:50:47.526Z,1.08
2023-03-08T10:53:36.939Z,1.13
2023-03-08T10:56:28.315Z,1.10
2023-03-08T10:59:19.565Z,0.90
2023-03-08T11:02:22.357Z,1.00
2023-03-08T11:05:20.130Z,0.93
2023-03-08T11:08:19.192Z,1.10
2023-03-08T11:11:11.567Z,0.90
2023-03-08T11:13:59.727Z,1.10
2023-03-08T11:16:59.716Z,1.20
2023-03-08T11:19:59.863Z,1.10
2023-03-08T11:23:04.020Z,1.08
2023-03-08T11:25:58.272Z,0.80
2023-03-08T11:29:02.187Z,1.02
2023-03-08T11:31:59.566Z,0.90
2023-03-08T11:34:57.863Z,1.00
2023-03-08T11:37:51.598Z,1.08
2023-03-08T11:40:52.425Z,0.85
2023-03-08T11:44:00.747Z,1.17
2023-03-08T11:47:01.786Z,1.00
2023-03-08T11:50:05.908Z,1.00
2023-03-08T11:53:05.648Z,1.00
2023-03-08T11:56:27.448Z,1.08
2023-03-08T11:59:25.001Z,1.20
2023-03-08T12:02:18.446Z,1.30
2023-03-08T12:05:11.486Z,1.13
2023-03-08T12:08:03.775Z,1.30
2023-03-08T12:10:56.506Z,1.30
2023-03-08T12:13:48.464Z,0.90
2023-03-08T12:16:43.844Z,1.00
2023-03-08T12:19:40.327Z,1.23
2023-03-08T12:22:39.211Z,0.90
2023-03-08T12:25:31.324Z,0.90
2023-03-08T12:28:24.717Z,1.00
2023-03-08T12:31:28.810Z,1.00
2023-03-08T12:34:28.569Z,1.00
2023-03-08T12:37:24.952Z,1.17
2023-03-08T12:40:31.384Z,1.10
2023-03-08T12:43:30.881Z,1.48
2023-03-08T12:46:19.001Z,1.05
2023-03-08T12:49:20.412Z,0.90
2023-03-08T12:52:27.369Z,1.10
2023-03-08T12:55:21.037Z,0.93
2023-03-08T12:58:18.251Z,0.90
2023-03-08T13:01:08.348Z,1.15
2023-03-08T13:03:56.558Z,1.35
2023-03-08T13:07:13.794Z,1.00
2023-03-08T13:10:09.585Z,1.00
2023-03-08T13:13:31.105Z,1.15
2023-03-08T13:16:32.038Z,1.00
2023-03-08T13:19:26.358Z,1.30
2023-03-08T13:22:21.570Z,1.15
2023-03-08T13:25:20.074Z,1.08
2023-03-08T13:28:11.826Z,1.30
2023-03-08T13:31:02.353Z,1.10
2023-03-08T13:33:52.719Z,1.10
2023-03-08T13:36:40.813Z,1.00
2023-03-08T13:39:31.721Z,1.10
2023-03-08T13:42:24.660Z,1.05
2023-03-08T13:45:18.582Z,1.02
2023-03-08T13:48:09.746Z,1.10
2023-03-08T13:50:59.352Z,1.20
2023-03-08T13:53:47.754Z,1.00
2023-03-08T13:56:37.882Z,1.13
2023-03-08T13:59:25.966Z,1.20
2023-03-08T14:02:22.923Z,1.30
2023-03-08T14:05:17.754Z,1.15
2023-03-08T14:08:08.097Z,1.38
2023-03-08T14:10:59.850Z,1.00
2023-03-08T14:13:51.871Z,0.90
2023-03-08T14:16:43.211Z,1.00
2023-03-08T14:19:33.700Z,0.90
2023-03-08T14:22:37.685Z,0.95
2023-03-08T14:25:29.885Z,1.38
2023-03-08T14:28:41.173Z,1.13
2023-03-08T14:31:31.335Z,1.13
2023-03-08T14:34:22.290Z,1.00
2023-03-08T14:37:20.901Z,1.38
2023-03-08T14:40:24.648Z,1.38
2023-03-08T14:43:17.404Z,1.00
2023-03-08T14:46:09.195Z,1.00
2023-03-08T14:49:00.971Z,1.20
2023-03-08T14:51:49.235Z,1.00
2023-03-08T14:54:38.578Z,1.15
2023-03-08T14:57:28.549Z,1.05
2023-03-08T15:00:18.110Z,1.20
2023-03-08T15:03:06.646Z,1.27
2023-03-08T15:05:57.353Z,1.02
2023-03-08T15:08:45.435Z,1.30
2023-03-08T15:11:33.690Z,1.52
2023-03-08T15:14:21.722Z,1.20
2023-03-08T15:17:09.757Z,1.10
2023-03-08T15:19:57.794Z,1.10
2023-03-08T15:22:49.537Z,1.10
2023-03-08T15:25:39.178Z,1.38
2023-03-08T15:28:27.814Z,1.08
2023-03-08T15:31:15.995Z,1.20
2023-03-08T15:34:04.175Z,0.80
2023-03-08T15:36:53.696Z,1.10
2023-03-08T15:39:43.161Z,0.90
2023-03-08T15:42:31.838Z,1.60
2023-03-08T15:45:20.169Z,1.00
2023-03-08T15:48:12.525Z,1.50
2023-03-08T15:51:00.763Z,1.45
2023-03-08T15:53:49.496Z,1.48
2023-03-08T15:56:39.112Z,1.65
2023-03-08T15:59:27.121Z,1.10
2023-03-08T16:02:16.776Z,1.42
2023-03-08T16:05:05.672Z,1.83
2023-03-08T16:07:54.588Z,1.38
2023-03-08T16:10:43.984Z,1.38
2023-03-08T16:13:33.708Z,1.58
2023-03-08T16:16:27.634Z,1.50
2023-03-08T16:19:20.273Z,1.50
2023-03-08T16:22:08.593Z,1.27
2023-03-08T16:24:56.630Z,1.55
2023-03-08T16:27:44.632Z,1.63
2023-03-08T16:30:33.984Z,1.52
2023-03-08T16:33:22.469Z,1.60
2023-03-08T16:36:12.190Z,1.33
2023-03-08T16:39:00.434Z,1.60
2023-03-08T16:41:49.248Z,1.75
2023-03-08T16:44:37.283Z,1.90
2023-03-08T16:47:27.194Z,1.95
2023-03-08T16:50:15.419Z,2.47
2023-03-08T16:53:03.469Z,1.85
2023-03-08T16:55:52.521Z,1.80
2023-03-08T16:58:40.549Z,2.00
2023-03-08T17:01:29.278Z,1.73
2023-03-08T17:04:19.448Z,1.60
2023-03-08T17:07:08.381Z,2.53
2023-03-08T17:09:56.485Z,1.95
2023-03-08T17:12:44.531Z,2.30
2023-03-08T17:15:38.450Z,2.50
2023-03-08T17:18:26.796Z,2.10
2023-03-08T17:21:16.385Z,2.10
2023-03-08T17:24:07.208Z,2.40
2023-03-08T17:26:55.247Z,3.00
2023-03-08T17:29:43.258Z,2.28
2023-03-08T17:32:32.111Z,2.95
2023-03-08T17:35:20.326Z,2.65
2023-03-08T17:38:09.685Z,2.60
2023-03-08T17:40:57.779Z,2.72
2023-03-08T17:43:45.794Z,3.15
2023-03-08T17:46:33.931Z,3.83
2023-03-08T17:49:24.952Z,3.10
2023-03-08T17:52:13.006Z,3.38
2023-03-08T17:55:02.435Z,3.30
2023-03-08T17:57:50.618Z,2.85
2023-03-08T18:00:39.046Z,3.72
2023-03-08T18:03:27.078Z,3.20
2023-03-08T18:06:20.636Z,2.72
2023-03-08T18:09:10.171Z,3.80
2023-03-08T18:11:59.519Z,3.45
2023-03-08T18:14:52.312Z,3.40
2023-03-08T18:17:41.351Z,2.83
2023-03-08T18:20:30.372Z,2.75
2023-03-08T18:23:18.384Z,2.38
2023-03-08T18:26:06.652Z,2.53
2023-03-08T18:28:56.193Z,2.15
2023-03-08T18:31:44.455Z,2.33
2023-03-08T18:34:32.548Z,2.50
2023-03-08T18:37:20.566Z,2.70
2023-03-08T18:40:12.048Z,2.42
2023-03-08T18:43:00.102Z,1.98
2023-03-08T18:45:53.739Z,2.20
2023-03-08T18:48:42.429Z,2.92
2023-03-08T18:51:33.718Z,2.30
2023-03-08T18:54:22.254Z,2.92
2023-03-08T18:57:10.282Z,2.72
2023-03-08T18:59:58.308Z,3.13
2023-03-08T19:02:47.647Z,2.50
2023-03-08T19:05:36.779Z,2.40
2023-03-08T19:08:24.912Z,2.70
2023-03-08T19:11:14.448Z,2.97
2023-03-08T19:14:02.476Z,2.92
2023-03-08T19:16:50.457Z,3.10
2023-03-08T19:19:39.836Z,2.42
2023-03-08T19:22:27.930Z,3.08
2023-03-08T19:25:16.165Z,2.92
2023-03-08T19:28:04.166Z,2.67
2023-03-08T19:30:52.267Z,2.88
2023-03-08T19:33:40.296Z,3.22
2023-03-08T19:36:29.677Z,3.08
2023-03-08T19:39:21.241Z,3.38
2023-03-08T19:42:12.108Z,3.30
2023-03-08T19:45:00.166Z,2.63
2023-03-08T19:47:48.197Z,2.60
2023-03-08T19:50:36.235Z,3.40
2023-03-08T19:53:25.629Z,3.00
2023-03-08T19:56:15.952Z,2.10
2023-03-08T19:59:04.348Z,3.33
2023-03-08T20:01:53.693Z,2.65
2023-03-08T20:04:41.747Z,2.60
2023-03-08T20:07:30.137Z,3.10
2023-03-08T20:10:20.048Z,3.08
2023-03-08T20:13:08.047Z,2.92
2023-03-08T20:15:56.817Z,3.80
2023-03-08T20:18:45.181Z,3.35
2023-03-08T20:21:33.385Z,2.80
2023-03-08T20:24:23.199Z,2.55
2023-03-08T20:27:12.646Z,3.00
2023-03-08T20:30:00.692Z,3.33
2023-03-08T20:32:49.424Z,2.78
2023-03-08T20:35:37.665Z,2.95
2023-03-08T20:38:26.177Z,2.95
2023-03-08T20:41:16.738Z,3.40
2023-03-08T20:44:06.407Z,2.67
2023-03-08T20:46:54.465Z,2.95
2023-03-08T20:49:42.499Z,2.55
2023-03-08T20:52:30.592Z,2.15
2023-03-08T20:55:19.097Z,2.85
2023-03-08T20:58:07.205Z,2.50
2023-03-08T21:00:56.559Z,2.25
2023-03-08T21:03:45.398Z,1.98
2023-03-08T21:06:34.117Z,2.58
2023-03-08T21:09:22.417Z,2.90
2023-03-08T21:12:11.203Z,2.00
2023-03-08T21:14:59.715Z,3.03
2023-03-08T21:17:49.074Z,2.20
2023-03-08T21:20:38.320Z,2.70
2023-03-08T21:23:26.773Z,2.13
2023-03-08T21:26:14.931Z,2.10
2023-03-08T21:29:06.568Z,3.00
2023-03-08T21:31:55.472Z,2.88
2023-03-08T21:34:44.873Z,3.17
2023-03-08T21:37:32.942Z,2.88
2023-03-08T21:40:21.234Z,2.70
2023-03-08T21:43:09.615Z,3.00
2023-03-08T21:45:57.734Z,2.83
2023-03-08T21:48:46.173Z,3.40
2023-03-08T21:51:36.979Z,3.30
2023-03-08T21:54:26.859Z,2.30
2023-03-08T21:57:14.948Z,2.72
2023-03-08T22:00:03.773Z,3.47
2023-03-08T22:02:54.636Z,3.42
2023-03-08T22:05:42.958Z,2.90
2023-03-08T22:08:32.318Z,2.40
2023-03-08T22:11:21.522Z,3.00
2023-03-08T22:14:09.817Z,2.35
2023-03-08T22:16:57.913Z,3.33
2023-03-08T22:19:45.929Z,2.60
2023-03-08T22:22:36.736Z,2.67
2023-03-08T22:25:26.145Z,3.03
2023-03-08T22:28:15.441Z,2.40
2023-03-08T22:31:10.167Z,2.97
2023-03-08T22:33:58.701Z,2.78
2023-03-08T22:36:46.802Z,3.08
2023-03-08T22:39:34.835Z,2.70
2023-03-08T22:42:24.605Z,2.70
2023-03-08T22:45:13.578Z,2.50
2023-03-08T22:48:01.952Z,3.20
2023-03-08T22:50:56.350Z,3.20
2023-03-08T22:53:50.368Z,2.83
2023-03-08T22:56:38.418Z,2.22
2023-03-08T22:59:28.160Z,3.33
2023-03-08T23:02:16.560Z,2.88
2023-03-08T23:05:04.831Z,3.47
2023-03-08T23:07:53.544Z,3.20
2023-03-08T23:10:42.110Z,2.60
2023-03-08T23:13:34.656Z,3.42
2023-03-08T23:16:24.464Z,3.40
2023-03-08T23:19:14.825Z,2.90
2023-03-08T23:22:03.677Z,3.85
2023-03-08T23:24:51.798Z,3.60
2023-03-08T23:27:40.028Z,3.85
2023-03-08T23:30:28.076Z,3.35
2023-03-08T23:33:17.548Z,2.50
2023-03-08T23:36:06.541Z,2.60
2023-03-08T23:38:55.226Z,2.10
2023-03-08T23:41:43.411Z,2.63
2023-03-08T23:44:31.476Z,2.60
2023-03-08T23:47:19.528Z,2.65
2023-03-08T23:50:10.345Z,2.45
2023-03-08T23:52:58.399Z,2.70
2023-03-08T23:55:46.492Z,2.28
2023-03-08T23:58:34.574Z,2.97
